Time;durP1;ratioP1;P1;durP2;ratioP2;P2;SDS_P1;SDS_P2;PMS_P1;PMS_P2;Temp;Humidity;BMP_temperature;BMP_pressure;BME280_temperature;BME280_humidity;BME280_pressure;Samples;Min_cycle;Max_cycle;Signal;HPM_P1;HPM_P2
2023/10/23 00:01:33;;;;;;;;;;;;;;;9.63;100.00;100470.95;110784;1212;97652;-73
2023/10/23 00:03:58;;;;;;;;;;;;;;;9.62;100.00;100473.66;110731;1212;111955;-73
2023/10/23 00:06:23;;;;;;;;;;;;;;;9.62;100.00;100478.64;110600;1209;125649;-73
2023/10/23 00:08:48;;;;;;;;;;;;;;;9.62;100.00;100483.29;110857;1212;97762;-73
2023/10/23 00:11:23;;;;;;;;;;;;;;;9.62;100.00;100485.27;110646;1212;126465;-73
2023/10/23 00:13:49;;;;;;;;;;;;;;;9.62;100.00;100490.61;110691;1212;111574;-73
2023/10/23 00:16:14;;;;;;;;;;;;;;;9.62;100.00;100487.56;110792;1209;97679;-72
2023/10/23 00:18:39;;;;;;;;;;;;;;;9.62;100.00;100497.91;110589;1209;124978;-72
2023/10/23 00:21:04;;;;;;;;;;;;;;;9.63;100.00;100503.61;110753;1208;97707;-73
2023/10/23 00:23:29;;;;;;;;;;;;;;;9.63;100.00;100496.30;110724;1209;125307;-73
2023/10/23 00:25:54;;;;;;;;;;;;;;;9.63;100.00;100499.14;110629;1212;97877;-73
2023/10/23 00:28:20;;;;;;;;;;;;;;;9.62;100.00;100495.42;110751;1210;97625;-73
2023/10/23 00:30:45;;;;;;;;;;;;;;;9.63;100.00;100497.52;110600;1208;125529;-72
2023/10/23 00:33:10;;;;;;;;;;;;;;;9.63;100.00;100494.85;110837;1209;97708;-73
2023/10/23 00:35:36;;;;;;;;;;;;;;;9.65;100.00;100497.09;110672;1224;124756;-72
2023/10/23 00:38:02;;;;;;;;;;;;;;;9.68;100.00;100496.09;110784;1208;97668;-73
2023/10/23 00:40:28;;;;;;;;;;;;;;;9.70;100.00;100493.48;110686;1209;124886;-71
2023/10/23 00:42:53;;;;;;;;;;;;;;;9.71;100.00;100489.35;110736;1209;108323;-72
2023/10/23 00:45:19;;;;;;;;;;;;;;;9.69;100.00;100488.33;110689;1208;98017;-72
2023/10/23 00:47:44;;;;;;;;;;;;;;;9.71;100.00;100486.86;110774;1208;126554;-73
2023/10/23 00:50:10;;;;;;;;;;;;;;;9.70;100.00;100486.86;110706;1212;97779;-72
2023/10/23 00:52:35;;;;;;;;;;;;;;;9.71;100.00;100489.34;110758;1208;125034;-71
2023/10/23 00:55:00;;;;;;;;;;;;;;;9.69;100.00;100493.15;110656;1220;97488;-73
2023/10/23 00:57:26;;;;;;;;;;;;;;;9.69;100.00;100498.86;110744;1213;97593;-72
2023/10/23 00:59:51;;;;;;;;;;;;;;;9.70;100.00;100497.40;110589;1220;125357;-72
2023/10/23 01:02:16;;;;;;;;;;;;;;;9.69;100.00;100494.77;110779;1212;97677;-72
2023/10/23 01:04:41;;;;;;;;;;;;;;;9.66;100.00;100498.80;110729;1212;124914;-71
2023/10/23 01:07:07;;;;;;;;;;;;;;;9.67;100.00;100497.90;110756;1212;97714;-72
2023/10/23 01:09:32;;;;;;;;;;;;;;;9.66;100.00;100493.48;110736;1212;97896;-73
2023/10/23 01:11:57;;;;;;;;;;;;;;;9.66;100.00;100495.46;110592;1208;138312;-72
2023/10/23 01:14:22;;;;;;;;;;;;;;;9.64;100.00;100494.81;110714;1212;97617;-72
2023/10/23 01:16:47;;;;;;;;;;;;;;;9.62;100.00;100500.40;110730;1212;125649;-71
2023/10/23 01:19:12;;;;;;;;;;;;;;;9.61;100.00;100504.55;110757;1210;97739;-72
2023/10/23 01:21:37;;;;;;;;;;;;;;;9.60;100.00;100505.14;110836;1213;97700;-72
2023/10/23 01:24:06;;;;;;;;;;;;;;;9.59;100.00;100499.50;110728;1208;124853;-72
2023/10/23 01:26:31;;;;;;;;;;;;;;;9.59;100.00;100494.83;110730;1220;97744;-72
2023/10/23 01:28:56;;;;;;;;;;;;;;;9.59;100.00;100497.00;110615;1208;124986;-72
2023/10/23 01:31:21;;;;;;;;;;;;;;;9.59;100.00;100496.80;110768;1212;110428;-72
2023/10/23 01:33:46;;;;;;;;;;;;;;;9.58;100.00;100496.86;110830;1208;97731;-72
2023/10/23 01:36:12;;;;;;;;;;;;;;;9.57;100.00;100494.58;110710;1212;125582;-72
2023/10/23 01:38:37;;;;;;;;;;;;;;;9.56;100.00;100498.16;110658;1212;97726;-72
2023/10/23 01:41:02;;;;;;;;;;;;;;;9.56;100.00;100496.75;110758;1208;125517;-72
2023/10/23 01:43:27;;;;;;;;;;;;;;;9.56;100.00;100496.04;110705;1208;97718;-72
2023/10/23 01:45:52;;;;;;;;;;;;;;;9.57;100.00;100497.08;110790;1212;97200;-72
2023/10/23 01:48:18;;;;;;;;;;;;;;;9.57;100.00;100493.16;110643;1212;124975;-72
2023/10/23 01:50:43;;;;;;;;;;;;;;;9.56;100.00;100492.98;110780;1212;97714;-72
2023/10/23 01:53:08;;;;;;;;;;;;;;;9.57;100.00;100493.15;110702;1213;126098;-72
2023/10/23 01:55:36;;;;;;;;;;;;;;;9.59;100.00;100488.23;110690;1208;98768;-72
2023/10/23 01:58:01;;;;;;;;;;;;;;;9.59;100.00;100487.87;110813;1209;97701;-72
2023/10/23 02:00:26;;;;;;;;;;;;;;;9.60;100.00;100492.65;110617;1213;124783;-72
2023/10/23 02:02:52;;;;;;;;;;;;;;;9.60;100.00;100493.20;110778;1208;97708;-72
2023/10/23 02:05:17;;;;;;;;;;;;;;;9.58;100.00;100490.77;110590;1209;126275;-71
2023/10/23 02:07:42;;;;;;;;;;;;;;;9.57;100.00;100489.75;110821;1212;97695;-72
2023/10/23 02:10:08;;;;;;;;;;;;;;;9.57;100.00;100489.06;110749;1212;97680;-72
2023/10/23 02:12:33;;;;;;;;;;;;;;;9.55;100.00;100488.21;110785;1210;125492;-72
2023/10/23 02:14:58;;;;;;;;;;;;;;;9.56;100.00;100489.10;110854;1209;97619;-72
2023/10/23 02:17:24;;;;;;;;;;;;;;;9.56;100.00;100491.75;110685;1209;124949;-72
2023/10/23 02:19:49;;;;;;;;;;;;;;;9.57;100.00;100485.84;110761;1212;97726;-72
2023/10/23 02:22:14;;;;;;;;;;;;;;;9.56;100.00;100486.95;110690;1214;97815;-72
2023/10/23 02:24:40;;;;;;;;;;;;;;;9.55;100.00;100488.60;110791;1208;125823;-72
2023/10/23 02:27:05;;;;;;;;;;;;;;;9.55;100.00;100492.17;110722;1212;97690;-72
2023/10/23 02:29:30;;;;;;;;;;;;;;;9.52;100.00;100497.63;110587;1212;124984;-72
2023/10/23 02:31:55;;;;;;;;;;;;;;;9.51;100.00;100501.08;110811;1208;97778;-72
2023/10/23 02:34:20;;;;;;;;;;;;;;;9.50;100.00;100497.17;110839;1212;98061;-72
2023/10/23 02:36:46;;;;;;;;;;;;;;;9.47;100.00;100498.56;110678;1210;126387;-72
2023/10/23 02:39:11;;;;;;;;;;;;;;;9.45;100.00;100498.45;110748;1212;98453;-72
2023/10/23 02:41:36;;;;;;;;;;;;;;;9.44;100.00;100500.61;110768;1212;124899;-72
2023/10/23 02:44:01;;;;;;;;;;;;;;;9.46;100.00;100506.98;110755;1210;97641;-71
2023/10/23 02:46:27;;;;;;;;;;;;;;;9.44;100.00;100508.85;110726;1209;125465;-70
2023/10/23 02:48:52;;;;;;;;;;;;;;;9.42;100.00;100509.98;110872;1209;97704;-72
2023/10/23 02:51:17;;;;;;;;;;;;;;;9.41;100.00;100516.64;110882;1215;97613;-72
2023/10/23 02:53:43;;;;;;;;;;;;;;;9.41;100.00;100526.44;110729;1213;125358;-71
2023/10/23 02:56:14;;;;;;;;;;;;;;;9.42;100.00;100525.86;110830;1209;97652;-72
2023/10/23 02:58:40;;;;;;;;;;;;;;;9.41;100.00;100529.99;110619;1208;125075;-71
2023/10/23 03:01:15;;;;;;;;;;;;;;;9.40;100.00;100532.73;110781;1213;99133;-72
2023/10/23 03:03:40;;;;;;;;;;;;;;;9.38;100.00;100535.48;110691;1212;108390;-72
2023/10/23 03:06:05;;;;;;;;;;;;;;;9.36;100.00;100538.94;110620;1210;125186;-71
2023/10/23 03:08:30;;;;;;;;;;;;;;;9.33;100.00;100542.63;110880;1208;97570;-71
2023/10/23 03:10:56;;;;;;;;;;;;;;;9.32;100.00;100538.92;110755;1212;124940;-72
2023/10/23 03:13:21;;;;;;;;;;;;;;;9.33;100.00;100546.39;110784;1212;97907;-71
2023/10/23 03:15:46;;;;;;;;;;;;;;;9.31;100.00;100544.16;110724;1212;98465;-71
2023/10/23 03:18:11;;;;;;;;;;;;;;;9.30;100.00;100548.11;110703;1213;126419;-71
2023/10/23 03:20:37;;;;;;;;;;;;;;;9.29;100.00;100544.23;110732;1210;97620;-71
2023/10/23 03:23:02;;;;;;;;;;;;;;;9.28;100.00;100544.44;110671;1209;125166;-72
2023/10/23 03:25:27;;;;;;;;;;;;;;;9.28;100.00;100544.09;110834;1214;97690;-71
2023/10/23 03:27:52;;;;;;;;;;;;;;;9.28;100.00;100545.51;110816;1211;97660;-71
2023/10/23 03:30:18;;;;;;;;;;;;;;;9.29;100.00;100552.96;110737;1213;124777;-71
2023/10/23 03:32:43;;;;;;;;;;;;;;;9.30;100.00;100554.86;110819;1211;98587;-71
2023/10/23 03:35:08;;;;;;;;;;;;;;;9.30;100.00;100556.30;110767;1209;124881;-71
2023/10/23 03:37:33;;;;;;;;;;;;;;;9.29;100.00;100555.44;110721;1208;97595;-71
2023/10/23 03:39:58;;;;;;;;;;;;;;;9.30;100.00;100556.82;110779;1208;97807;-71
2023/10/23 03:42:23;;;;;;;;;;;;;;;9.32;100.00;100557.46;110660;1212;124854;-71
2023/10/23 03:44:49;;;;;;;;;;;;;;;9.32;100.00;100561.94;110820;1212;97648;-71
2023/10/23 03:47:14;;;;;;;;;;;;;;;9.31;100.00;100560.88;110584;1220;126565;-71
2023/10/23 03:49:39;;;;;;;;;;;;;;;9.33;100.00;100563.15;110813;1212;97576;-71
2023/10/23 03:52:04;;;;;;;;;;;;;;;9.35;100.00;100570.92;110880;1208;97709;-71
2023/10/23 03:54:29;;;;;;;;;;;;;;;9.36;100.00;100574.44;110700;1212;124939;-70
2023/10/23 03:56:55;;;;;;;;;;;;;;;9.36;100.00;100574.09;110808;1208;96485;-70
2023/10/23 03:59:20;;;;;;;;;;;;;;;9.35;100.00;100571.80;110670;1211;124909;-71
2023/10/23 04:01:45;;;;;;;;;;;;;;;9.32;100.00;100577.45;110768;1212;97653;-72
2023/10/23 04:04:10;;;;;;;;;;;;;;;9.29;100.00;100579.36;110740;1208;98132;-72
2023/10/23 04:06:38;;;;;;;;;;;;;;;9.28;100.00;100582.95;110709;1212;125300;-71
2023/10/23 04:09:03;;;;;;;;;;;;;;;9.27;100.00;100577.29;110754;1208;97701;-71
2023/10/23 04:11:28;;;;;;;;;;;;;;;9.25;100.00;100570.42;110642;1213;125536;-71
2023/10/23 04:13:53;;;;;;;;;;;;;;;9.26;100.00;100571.29;110780;1213;97603;-71
2023/10/23 04:16:18;;;;;;;;;;;;;;;9.27;100.00;100570.16;110809;1209;97603;-71
2023/10/23 04:18:44;;;;;;;;;;;;;;;9.27;100.00;100571.23;110760;1212;125902;-71
2023/10/23 04:21:09;;;;;;;;;;;;;;;9.27;100.00;100566.95;110876;1208;97600;-71
2023/10/23 04:23:36;;;;;;;;;;;;;;;9.29;100.00;100570.80;110685;1212;124800;-71
2023/10/23 04:26:02;;;;;;;;;;;;;;;9.30;100.00;100566.83;110826;1208;97659;-71
2023/10/23 04:28:27;;;;;;;;;;;;;;;9.29;100.00;100577.21;110629;1219;125037;-71
2023/10/23 04:30:52;;;;;;;;;;;;;;;9.30;100.00;100580.74;110870;1209;97693;-72
2023/10/23 04:33:24;;;;;;;;;;;;;;;9.30;100.00;100577.02;110782;1216;97588;-71
2023/10/23 04:35:54;;;;;;;;;;;;;;;9.27;100.00;100575.70;110750;1209;124965;-71
2023/10/23 04:38:20;;;;;;;;;;;;;;;9.27;100.00;100575.15;110783;1212;99475;-71
2023/10/23 04:40:46;;;;;;;;;;;;;;;9.26;100.00;100581.05;110667;1213;125209;-71
2023/10/23 04:43:11;;;;;;;;;;;;;;;9.27;100.00;100584.05;110793;1212;97677;-70
2023/10/23 04:45:37;;;;;;;;;;;;;;;9.27;100.00;100588.72;110803;1211;97432;-71
2023/10/23 04:48:02;;;;;;;;;;;;;;;9.25;100.00;100585.94;110715;1208;125387;-71
2023/10/23 04:50:30;;;;;;;;;;;;;;;9.23;100.00;100582.98;110757;1224;97736;-71
2023/10/23 04:52:55;;;;;;;;;;;;;;;9.22;100.00;100581.06;110597;1212;125495;-72
2023/10/23 04:55:20;;;;;;;;;;;;;;;9.22;100.00;100587.45;110606;1212;97713;-71
2023/10/23 04:57:45;;;;;;;;;;;;;;;9.23;100.00;100588.30;110974;1212;97927;-71
2023/10/23 05:00:11;;;;;;;;;;;;;;;9.23;100.00;100584.56;110514;1209;125375;-71
2023/10/23 05:02:37;;;;;;;;;;;;;;;9.24;100.00;100589.35;111174;1212;98767;-71
2023/10/23 05:05:02;;;;;;;;;;;;;;;9.24;100.00;100594.00;110557;1208;125574;-71
2023/10/23 05:07:27;;;;;;;;;;;;;;;9.22;100.00;100598.16;110650;1212;97704;-71
2023/10/23 05:09:52;;;;;;;;;;;;;;;9.21;100.00;100602.12;110722;1208;97668;-71
2023/10/23 05:12:18;;;;;;;;;;;;;;;9.22;100.00;100603.71;110556;1213;125341;-70
2023/10/23 05:14:44;;;;;;;;;;;;;;;9.20;100.00;100610.55;110756;1211;97709;-70
2023/10/23 05:17:09;;;;;;;;;;;;;;;9.18;100.00;100609.19;110704;1209;124898;-70
2023/10/23 05:19:34;;;;;;;;;;;;;;;9.19;100.00;100609.35;110771;1211;97591;-70
2023/10/23 05:21:59;;;;;;;;;;;;;;;9.19;100.00;100612.03;110892;1208;97665;-70
2023/10/23 05:24:25;;;;;;;;;;;;;;;9.18;100.00;100612.07;110506;1209;124883;-70
2023/10/23 05:26:50;;;;;;;;;;;;;;;9.17;100.00;100619.74;110766;1213;97607;-70
2023/10/23 05:29:15;;;;;;;;;;;;;;;9.16;100.00;100620.34;110616;1212;125351;-70
2023/10/23 05:31:40;;;;;;;;;;;;;;;9.16;100.00;100623.91;110879;1213;98509;-70
2023/10/23 05:34:06;;;;;;;;;;;;;;;9.18;100.00;100626.86;110753;1210;97707;-70
2023/10/23 05:36:32;;;;;;;;;;;;;;;9.16;100.00;100627.45;110668;1208;125954;-70
2023/10/23 05:38:57;;;;;;;;;;;;;;;9.17;100.00;100630.10;110944;1215;97716;-70
2023/10/23 05:41:22;;;;;;;;;;;;;;;9.19;100.00;100633.61;110678;1212;125997;-70
2023/10/23 05:43:47;;;;;;;;;;;;;;;9.18;100.00;100642.71;110902;1212;97792;-70
2023/10/23 05:46:12;;;;;;;;;;;;;;;9.20;100.00;100644.79;110726;1208;97907;-70
2023/10/23 05:48:38;;;;;;;;;;;;;;;9.24;100.00;100645.53;110686;1209;127554;-71
2023/10/23 05:51:04;;;;;;;;;;;;;;;9.25;100.00;100647.09;110886;1213;100929;-70
2023/10/23 05:53:30;;;;;;;;;;;;;;;9.27;100.00;100644.33;110751;1209;125531;-70
2023/10/23 05:56:03;;;;;;;;;;;;;;;9.28;100.00;100645.03;110786;1212;97565;-70
2023/10/23 05:58:28;;;;;;;;;;;;;;;9.28;100.00;100648.73;110644;1213;125170;-69
2023/10/23 06:00:53;;;;;;;;;;;;;;;9.30;100.00;100653.33;110933;1211;98457;-70
2023/10/23 06:03:19;;;;;;;;;;;;;;;9.31;100.00;100653.27;110620;1210;96451;-70
2023/10/23 06:05:44;;;;;;;;;;;;;;;9.32;100.00;100651.80;110214;1213;124912;-71
2023/10/23 06:08:10;;;;;;;;;;;;;;;9.34;100.00;100655.27;110629;1213;97725;-71
2023/10/23 06:10:42;;;;;;;;;;;;;;;9.35;100.00;100649.36;110689;1210;125616;-70
2023/10/23 06:13:07;;;;;;;;;;;;;;;9.36;100.00;100652.55;110634;1208;97645;-70
2023/10/23 06:15:33;;;;;;;;;;;;;;;9.35;100.00;100655.24;110665;1212;98854;-70
2023/10/23 06:17:58;;;;;;;;;;;;;;;9.37;100.00;100654.11;110685;1214;128082;-70
2023/10/23 06:20:23;;;;;;;;;;;;;;;9.37;100.00;100661.04;110665;1209;97610;-69
2023/10/23 06:22:48;;;;;;;;;;;;;;;9.39;100.00;100662.58;110733;1208;125906;-69
2023/10/23 06:25:13;;;;;;;;;;;;;;;9.39;100.00;100662.95;110764;1212;97623;-69
2023/10/23 06:27:39;;;;;;;;;;;;;;;9.38;100.00;100662.99;110856;1208;97658;-70
2023/10/23 06:30:04;;;;;;;;;;;;;;;9.41;100.00;100661.60;110745;1211;125303;-70
2023/10/23 06:32:33;;;;;;;;;;;;;;;9.44;100.00;100662.04;110866;1212;97714;-69
2023/10/23 06:34:58;;;;;;;;;;;;;;;9.44;100.00;100669.16;110673;1209;125486;-69
2023/10/23 06:37:23;;;;;;;;;;;;;;;9.51;100.00;100668.74;110889;1213;97681;-70
2023/10/23 06:39:48;;;;;;;;;;;;;;;9.57;100.00;100670.84;110886;1213;97716;-69
2023/10/23 06:42:13;;;;;;;;;;;;;;;9.61;100.00;100667.98;110830;1211;125091;-69
2023/10/23 06:44:38;;;;;;;;;;;;;;;9.65;100.00;100671.21;110821;1208;107965;-69
2023/10/23 06:47:03;;;;;;;;;;;;;;;9.66;100.00;100674.56;110587;1213;125122;-70
2023/10/23 06:49:29;;;;;;;;;;;;;;;9.68;100.00;100681.98;110751;1214;96482;-69
2023/10/23 06:51:54;;;;;;;;;;;;;;;9.70;100.00;100687.98;110774;1213;97792;-69
2023/10/23 06:54:20;;;;;;;;;;;;;;;9.70;100.00;100689.75;110673;1213;124857;-67
2023/10/23 06:56:45;;;;;;;;;;;;;;;9.70;100.00;100690.27;110625;1213;97961;-67
2023/10/23 06:59:10;;;;;;;;;;;;;;;9.72;100.00;100693.61;110574;1212;125101;-67
2023/10/23 07:01:36;;;;;;;;;;;;;;;9.72;100.00;100700.93;110530;1214;97370;-68
2023/10/23 07:04:01;;;;;;;;;;;;;;;9.72;100.00;100698.59;110666;1212;101117;-68
2023/10/23 07:06:26;;;;;;;;;;;;;;;9.76;100.00;100699.69;110493;1208;126894;-69
2023/10/23 07:08:51;;;;;;;;;;;;;;;9.82;100.00;100695.90;110783;1223;98816;-68
2023/10/23 07:11:18;;;;;;;;;;;;;;;9.87;100.00;100692.64;110572;1213;124995;-68
2023/10/23 07:13:44;;;;;;;;;;;;;;;9.93;100.00;100696.86;110612;1213;97659;-69
2023/10/23 07:16:09;;;;;;;;;;;;;;;9.98;100.00;100700.43;110680;1213;97689;-69
2023/10/23 07:18:34;;;;;;;;;;;;;;;10.00;100.00;100706.75;110675;1210;125929;-67
2023/10/23 07:20:59;;;;;;;;;;;;;;;10.05;100.00;100702.80;110817;1214;97601;-68
2023/10/23 07:23:25;;;;;;;;;;;;;;;10.12;100.00;100707.02;110717;1214;125534;-67
2023/10/23 07:26:07;;;;;;;;;;;;;;;10.16;100.00;100706.48;110714;1212;97588;-68
2023/10/23 07:28:33;;;;;;;;;;;;;;;10.22;100.00;100710.71;110440;1217;125198;-67
2023/10/23 07:31:01;;;;;;;;;;;;;;;10.30;100.00;100714.88;110603;1210;98575;-68
2023/10/23 07:33:26;;;;;;;;;;;;;;;10.36;100.00;100715.32;110673;1212;97647;-68
2023/10/23 07:36:00;;;;;;;;;;;;;;;10.41;100.00;100712.05;110602;1209;126252;-69
2023/10/23 07:38:25;;;;;;;;;;;;;;;10.46;100.00;100714.34;110734;1225;108294;-68
2023/10/23 07:40:50;;;;;;;;;;;;;;;10.49;100.00;100713.88;110649;1213;126312;-68
2023/10/23 07:43:15;;;;;;;;;;;;;;;10.51;100.00;100714.88;110805;1208;97566;-68
2023/10/23 07:45:41;;;;;;;;;;;;;;;10.53;100.00;100716.40;110626;1214;98875;-68
2023/10/23 07:48:07;;;;;;;;;;;;;;;10.57;100.00;100714.95;110587;1214;124937;-69
2023/10/23 07:50:32;;;;;;;;;;;;;;;10.62;100.00;100709.75;110668;1209;98198;-67
2023/10/23 07:52:57;;;;;;;;;;;;;;;10.65;100.00;100710.15;110475;1210;126139;-67
2023/10/23 07:55:22;;;;;;;;;;;;;;;10.67;100.00;100709.33;110411;1213;97618;-67
2023/10/23 07:57:47;;;;;;;;;;;;;;;10.71;100.00;100712.91;110524;1214;99296;-67
2023/10/23 08:00:14;;;;;;;;;;;;;;;10.76;100.00;100712.36;110374;1208;125842;-68
2023/10/23 08:02:39;;;;;;;;;;;;;;;10.80;100.00;100708.25;110593;1214;102940;-67
2023/10/23 08:05:04;;;;;;;;;;;;;;;10.84;100.00;100708.95;110624;1212;125376;-67
2023/10/23 08:07:30;;;;;;;;;;;;;;;10.90;100.00;100708.70;110675;1214;97690;-69
2023/10/23 08:09:56;;;;;;;;;;;;;;;10.95;100.00;100709.20;110735;1214;97588;-69
2023/10/23 08:12:21;;;;;;;;;;;;;;;11.01;100.00;100709.10;110605;1214;125522;-67
2023/10/23 08:14:46;;;;;;;;;;;;;;;11.04;100.00;100712.36;110784;1213;98276;-67
2023/10/23 08:17:11;;;;;;;;;;;;;;;11.07;100.00;100715.83;110529;1210;126790;-67
2023/10/23 08:19:36;;;;;;;;;;;;;;;11.13;100.00;100713.05;110825;1213;99216;-67
2023/10/23 08:22:01;;;;;;;;;;;;;;;11.20;100.00;100719.89;110716;1213;97719;-66
2023/10/23 08:24:27;;;;;;;;;;;;;;;11.27;100.00;100715.98;110559;1208;126618;-66
2023/10/23 08:26:52;;;;;;;;;;;;;;;11.34;100.00;100714.63;110736;1208;97564;-66
2023/10/23 08:29:18;;;;;;;;;;;;;;;11.39;100.00;100715.29;110642;1214;126405;-67
2023/10/23 08:31:43;;;;;;;;;;;;;;;11.45;100.00;100718.75;110668;1208;97612;-67
2023/10/23 08:34:08;;;;;;;;;;;;;;;11.52;100.00;100718.42;110655;1214;97707;-67
2023/10/23 08:36:33;;;;;;;;;;;;;;;11.59;100.00;100724.01;110645;1214;125046;-67
2023/10/23 08:38:59;;;;;;;;;;;;;;;11.61;100.00;100725.91;110610;1209;97645;-67
2023/10/23 08:41:25;;;;;;;;;;;;;;;11.61;100.00;100725.34;110616;1214;125282;-67
2023/10/23 08:43:51;;;;;;;;;;;;;;;11.62;100.00;100723.34;110666;1217;111653;-68
2023/10/23 08:46:16;;;;;;;;;;;;;;;11.58;100.00;100723.69;110710;1214;98316;-68
2023/10/23 08:48:42;;;;;;;;;;;;;;;11.57;100.00;100724.48;110657;1214;125163;-67
2023/10/23 08:51:08;;;;;;;;;;;;;;;11.58;100.00;100725.84;110763;1213;96449;-66
2023/10/23 08:53:34;;;;;;;;;;;;;;;11.59;100.00;100725.80;110611;1213;126423;-66
2023/10/23 08:56:03;;;;;;;;;;;;;;;11.66;100.00;100725.83;110836;1210;98354;-69
2023/10/23 08:58:30;;;;;;;;;;;;;;;11.73;100.00;100727.14;110633;1222;125341;-68
2023/10/23 09:00:56;;;;;;;;;;;;;;;11.79;100.00;100725.81;110790;1212;97575;-67
2023/10/23 09:03:23;;;;;;;;;;;;;;;11.79;100.00;100727.39;110851;1214;97687;-68
2023/10/23 09:05:48;;;;;;;;;;;;;;;11.76;100.00;100723.05;110725;1213;127559;-67
2023/10/23 09:08:13;;;;;;;;;;;;;;;11.76;100.00;100723.59;110735;1213;97672;-69
2023/10/23 09:10:58;;;;;;;;;;;;;;;11.77;100.00;100726.61;110849;1213;125405;-69
2023/10/23 09:13:23;;;;;;;;;;;;;;;11.83;100.00;100734.75;110710;1212;98879;-68
2023/10/23 09:15:49;;;;;;;;;;;;;;;11.85;100.00;100736.79;110743;1213;97625;-68
2023/10/23 09:18:16;;;;;;;;;;;;;;;11.89;100.00;100733.92;110690;1212;125069;-67
2023/10/23 09:20:41;;;;;;;;;;;;;;;11.97;100.00;100738.02;110847;1214;111590;-68
2023/10/23 09:23:11;;;;;;;;;;;;;;;12.05;100.00;100736.20;110706;1214;125923;-68
2023/10/23 09:25:37;;;;;;;;;;;;;;;12.09;100.00;100737.61;110734;1208;107842;-68
2023/10/23 09:28:09;;;;;;;;;;;;;;;12.12;100.00;100739.29;110730;1214;97696;-69
2023/10/23 09:30:35;;;;;;;;;;;;;;;12.17;100.00;100737.08;110683;1221;125138;-67
2023/10/23 09:33:00;;;;;;;;;;;;;;;12.24;100.00;100737.44;110903;1214;97651;-67
2023/10/23 09:35:27;;;;;;;;;;;;;;;12.29;100.00;100736.27;110776;1214;125686;-67
2023/10/23 09:37:53;;;;;;;;;;;;;;;12.29;100.00;100733.58;110812;1225;97619;-68
2023/10/23 09:40:18;;;;;;;;;;;;;;;12.32;100.00;100733.23;110677;1212;99037;-69
2023/10/23 09:42:44;;;;;;;;;;;;;;;12.37;100.00;100730.32;110715;1223;124766;-67
2023/10/23 09:45:09;;;;;;;;;;;;;;;12.42;100.00;100733.48;110817;1214;97700;-67
2023/10/23 09:47:35;;;;;;;;;;;;;;;12.44;100.00;100732.48;110705;1213;126357;-68
2023/10/23 09:50:03;;;;;;;;;;;;;;;12.52;100.00;100730.31;110779;1214;111527;-68
2023/10/23 09:52:30;;;;;;;;;;;;;;;12.62;100.00;100732.27;110611;1210;126934;-66
2023/10/23 09:55:03;;;;;;;;;;;;;;;12.69;100.00;100731.79;110694;1211;97652;-66
2023/10/23 09:57:39;;;;;;;;;;;;;;;12.71;100.00;100732.20;110515;1214;97686;-67
2023/10/23 10:00:12;;;;;;;;;;;;;;;12.76;100.00;100730.88;110772;1209;125564;-66
2023/10/23 10:02:38;;;;;;;;;;;;;;;12.81;100.00;100733.64;110864;1209;111428;-67
2023/10/23 10:05:13;;;;;;;;;;;;;;;12.81;100.00;100727.20;110777;1214;125304;-66
2023/10/23 10:07:58;;;;;;;;;;;;;;;12.84;100.00;100726.16;110799;1223;108297;-67
2023/10/23 10:10:25;;;;;;;;;;;;;;;12.85;100.00;100720.91;110779;1208;98661;-66
2023/10/23 10:12:51;;;;;;;;;;;;;;;12.89;100.00;100717.46;110695;1213;124713;-66
2023/10/23 10:15:17;;;;;;;;;;;;;;;12.94;100.00;100718.99;110803;1211;97709;-66
2023/10/23 10:17:43;;;;;;;;;;;;;;;12.98;100.00;100718.04;110618;1215;127025;-67
2023/10/23 10:20:09;;;;;;;;;;;;;;;13.01;100.00;100716.77;110588;1214;97725;-66
2023/10/23 10:22:35;;;;;;;;;;;;;;;13.07;100.00;100718.27;110671;1213;125117;-67
2023/10/23 10:25:03;;;;;;;;;;;;;;;13.16;100.00;100716.21;110628;1209;98410;-67
2023/10/23 10:27:29;;;;;;;;;;;;;;;13.31;100.00;100713.45;110658;1212;97938;-66
2023/10/23 10:29:54;;;;;;;;;;;;;;;13.44;100.00;100712.23;110731;1209;125497;-67
2023/10/23 10:32:22;;;;;;;;;;;;;;;13.55;100.00;100710.00;110584;1209;98735;-67
2023/10/23 10:34:52;;;;;;;;;;;;;;;13.64;100.00;100705.36;110680;1215;125328;-67
2023/10/23 10:37:17;;;;;;;;;;;;;;;13.67;100.00;100704.83;110641;1214;102093;-68
2023/10/23 10:39:50;;;;;;;;;;;;;;;13.61;100.00;100703.54;110778;1209;97626;-68
2023/10/23 10:42:16;;;;;;;;;;;;;;;13.66;100.00;100695.91;110649;1212;125068;-68
2023/10/23 10:45:15;;;;;;;;;;;;;;;13.77;100.00;100691.73;110745;1211;97600;-66
2023/10/23 10:47:44;;;;;;;;;;;;;;;13.81;100.00;100689.70;110652;1212;125541;-67
2023/10/23 10:50:10;;;;;;;;;;;;;;;13.87;100.00;100691.34;110528;1215;100308;-69
2023/10/23 10:52:36;;;;;;;;;;;;;;;14.06;100.00;100687.95;110503;1215;126035;-68
2023/10/23 10:55:03;;;;;;;;;;;;;;;14.26;100.00;100687.99;110779;1214;99185;-69
2023/10/23 10:57:29;;;;;;;;;;;;;;;14.36;100.00;100689.42;110873;1214;111009;-69
2023/10/23 10:59:55;;;;;;;;;;;;;;;14.34;100.00;100686.68;110679;1209;125912;-67
2023/10/23 11:02:21;;;;;;;;;;;;;;;14.25;100.00;100687.36;110718;1214;97906;-70
2023/10/23 11:04:47;;;;;;;;;;;;;;;14.11;100.00;100686.91;110599;1214;125821;-67
2023/10/23 11:07:12;;;;;;;;;;;;;;;14.07;100.00;100685.88;110547;1215;99140;-68
2023/10/23 11:09:37;;;;;;;;;;;;;;;14.10;100.00;100683.20;110723;1214;97593;-67
2023/10/23 11:12:03;;;;;;;;;;;;;;;14.13;100.00;100679.98;110688;1220;125252;-67
2023/10/23 11:14:28;;;;;;;;;;;;;;;14.12;100.00;100681.12;110855;1213;97709;-68
2023/10/23 11:16:53;;;;;;;;;;;;;;;14.11;100.00;100681.48;110788;1215;125258;-67
2023/10/23 11:19:18;;;;;;;;;;;;;;;14.09;100.00;100683.61;110815;1209;97684;-67
2023/10/23 11:21:44;;;;;;;;;;;;;;;14.04;100.00;100687.85;110918;1214;97773;-67
2023/10/23 11:24:09;;;;;;;;;;;;;;;14.11;100.00;100689.77;110531;1215;125047;-67
2023/10/23 11:26:34;;;;;;;;;;;;;;;14.25;100.00;100691.13;110567;1209;98262;-67
2023/10/23 11:28:59;;;;;;;;;;;;;;;14.42;100.00;100688.03;110423;1214;125985;-68
2023/10/23 11:31:24;;;;;;;;;;;;;;;14.54;100.00;100682.06;110477;1215;97945;-68
2023/10/23 11:33:55;;;;;;;;;;;;;;;14.79;100.00;100676.66;110653;1215;97947;-68
2023/10/23 11:36:21;;;;;;;;;;;;;;;15.05;100.00;100670.02;110489;1216;125020;-67
2023/10/23 11:38:46;;;;;;;;;;;;;;;15.16;100.00;100670.40;110609;1215;97690;-67
2023/10/23 11:41:12;;;;;;;;;;;;;;;15.05;100.00;100672.17;110643;1215;124905;-68
2023/10/23 11:43:38;;;;;;;;;;;;;;;15.02;100.00;100669.29;110717;1215;97710;-68
2023/10/23 11:46:04;;;;;;;;;;;;;;;15.21;100.00;100668.80;110702;1215;97624;-67
2023/10/23 11:48:30;;;;;;;;;;;;;;;15.29;100.00;100667.78;110565;1209;126899;-68
2023/10/23 11:50:55;;;;;;;;;;;;;;;15.28;100.00;100666.22;110803;1214;97604;-68
2023/10/23 11:53:21;;;;;;;;;;;;;;;15.30;100.00;100661.83;110576;1209;125440;-68
2023/10/23 11:55:46;;;;;;;;;;;;;;;15.37;100.00;100665.84;110722;1215;97733;-68
2023/10/23 11:58:11;;;;;;;;;;;;;;;15.27;100.00;100670.64;110675;1210;97605;-70
2023/10/23 12:00:37;;;;;;;;;;;;;;;15.13;100.00;100674.00;110626;1215;125587;-68
2023/10/23 12:03:04;;;;;;;;;;;;;;;14.95;100.00;100680.31;110766;1224;107885;-68
2023/10/23 12:05:29;;;;;;;;;;;;;;;14.78;100.00;100685.02;110603;1210;125713;-68
2023/10/23 12:07:55;;;;;;;;;;;;;;;14.60;100.00;100683.89;110772;1215;117423;-69
2023/10/23 12:10:22;;;;;;;;;;;;;;;14.50;100.00;100686.30;110766;1213;100069;-70
2023/10/23 12:12:48;;;;;;;;;;;;;;;14.44;100.00;100684.33;110470;1210;125680;-70